Time;durP1;ratioP1;P1;durP2;ratioP2;P2;SDS_P1;SDS_P2;PMS_P1;PMS_P2;Temp;Humidity;BMP_temperature;BMP_pressure;BME280_temperature;BME280_humidity;BME280_pressure;Samples;Min_cycle;Max_cycle;Signal;HPM_P1;HPM_P2
2023/07/17 00:00:57;;;;;;;4.82;4.40;;;25.00;82.00;;;;;;5029691;28;20638;-73
2023/07/17 00:03:24;;;;;;;4.95;4.57;;;24.90;81.70;;;;;;5029926;28;20181;-73
2023/07/17 00:05:51;;;;;;;4.25;3.75;;;24.90;81.80;;;;;;5029515;28;20181;-73
2023/07/17 00:08:17;;;;;;;4.18;3.83;;;;;;;;;;5027942;28;20183;-73
2023/07/17 00:10:43;;;;;;;5.70;5.30;;;24.80;81.30;;;;;;5029788;28;20574;-72
2023/07/17 00:13:09;;;;;;;4.55;4.25;;;;;;;;;;5029528;28;20246;-73
2023/07/17 00:15:36;;;;;;;5.80;4.25;;;;;;;;;;5029641;28;20823;-73
2023/07/17 00:18:02;;;;;;;4.65;4.05;;;;;;;;;;5029682;28;20241;-73
2023/07/17 00:20:28;;;;;;;4.63;4.22;;;;;;;;;;5029217;28;20674;-72
2023/07/17 00:22:54;;;;;;;9.95;3.75;;;;;;;;;;5029575;28;20184;-73
2023/07/17 00:25:20;;;;;;;6.10;4.30;;;24.70;82.40;;;;;;5029560;28;20187;-73
2023/07/17 00:27:46;;;;;;;5.00;4.15;;;;;;;;;;5024043;28;20191;-73
2023/07/17 00:30:12;;;;;;;5.00;4.70;;;24.60;83.70;;;;;;5026101;28;20200;-72
2023/07/17 00:32:38;;;;;;;5.43;5.03;;;24.60;82.30;;;;;;5029792;28;20673;-73
2023/07/17 00:35:04;;;;;;;5.53;4.65;;;24.60;82.40;;;;;;5031734;28;20358;-73
2023/07/17 00:37:30;;;;;;;5.25;4.93;;;24.50;82.30;;;;;;5029720;28;20180;-72
2023/07/17 00:39:55;;;;;;;5.47;4.97;;;24.50;82.80;;;;;;5029447;28;20177;-72
2023/07/17 00:42:21;;;;;;;5.15;4.72;;;24.50;83.20;;;;;;5025751;28;20264;-72
2023/07/17 00:44:46;;;;;;;4.65;4.25;;;24.40;83.00;;;;;;5025310;28;20180;-72
2023/07/17 00:47:12;;;;;;;4.75;4.35;;;24.40;83.20;;;;;;5029148;28;20561;-72
2023/07/17 00:49:38;;;;;;;4.72;4.43;;;24.40;83.40;;;;;;5032966;28;20719;-73
2023/07/17 00:52:05;;;;;;;4.85;4.45;;;24.30;84.40;;;;;;5033086;28;20187;-73
2023/07/17 00:54:32;;;;;;;4.13;3.92;;;24.20;83.80;;;;;;5032799;28;20200;-72
2023/07/17 00:56:59;;;;;;;4.28;3.97;;;24.00;84.00;;;;;;5031961;28;20612;-72
2023/07/17 00:59:25;;;;;;;4.70;3.63;;;24.00;84.30;;;;;;5032914;28;20180;-72
2023/07/17 01:01:52;;;;;;;3.17;2.97;;;23.90;83.90;;;;;;5033161;28;20176;-72
2023/07/17 01:04:18;;;;;;;3.65;3.40;;;;;;;;;;5031431;28;20184;-74
2023/07/17 01:06:44;;;;;;;6.57;3.75;;;;;;;;;;5033045;28;20183;-72
2023/07/17 01:09:12;;;;;;;3.67;3.53;;;23.80;83.70;;;;;;5032687;28;20176;-74
2023/07/17 01:11:38;;;;;;;2.90;2.80;;;23.80;84.10;;;;;;5033328;28;20234;-73
2023/07/17 01:14:03;;;;;;;3.53;3.30;;;23.70;83.80;;;;;;5032614;28;20244;-73
2023/07/17 01:16:29;;;;;;;4.25;3.47;;;;;;;;;;5031537;28;20591;-72
2023/07/17 01:18:55;;;;;;;3.53;3.33;;;;;;;;;;5032221;28;20188;-73
2023/07/17 01:21:26;;;;;;;4.32;3.88;;;23.70;84.30;;;;;;5032672;28;20168;-73
2023/07/17 01:23:54;;;;;;;3.85;3.40;;;;;;;;;;5032522;28;20199;-73
2023/07/17 01:26:20;;;;;;;4.53;3.78;;;;;;;;;;5032685;28;20271;-73
2023/07/17 01:28:46;;;;;;;6.63;3.20;;;23.60;83.50;;;;;;5042058;28;20259;-73
2023/07/17 01:31:12;;;;;;;3.78;3.33;;;23.50;83.10;;;;;;5035284;28;20276;-73
2023/07/17 01:33:38;;;;;;;3.78;2.90;;;23.40;83.20;;;;;;5032114;28;20231;-73
2023/07/17 01:36:06;;;;;;;4.15;3.38;;;23.40;82.80;;;;;;5032452;28;20204;-73
2023/07/17 01:38:33;;;;;;;5.07;3.20;;;23.40;82.70;;;;;;5031666;28;20176;-73
2023/07/17 01:40:59;;;;;;;3.00;2.78;;;;;;;;;;5032412;28;20234;-73
2023/07/17 01:43:25;;;;;;;3.25;3.03;;;;;;;;;;5032233;28;20566;-73
2023/07/17 01:45:51;;;;;;;3.05;2.60;;;;;;;;;;5032396;28;20181;-73
2023/07/17 01:48:17;;;;;;;3.03;2.70;;;;;;;;;;5031911;28;20175;-74
2023/07/17 01:50:46;;;;;;;2.40;2.30;;;23.30;82.00;;;;;;5032403;28;20180;-73
2023/07/17 01:53:13;;;;;;;3.10;2.90;;;23.20;82.10;;;;;;5029463;28;20196;-74
2023/07/17 01:55:40;;;;;;;3.63;2.28;;;;;;;;;;5032161;28;20180;-74
2023/07/17 01:58:06;;;;;;;3.03;2.78;;;;;;;;;;5031668;28;20188;-74
2023/07/17 02:00:31;;;;;;;3.97;2.55;;;23.10;82.30;;;;;;5031782;28;20565;-73
2023/07/17 02:02:57;;;;;;;4.05;2.65;;;;;;;;;;5033808;28;20180;-75
2023/07/17 02:05:23;;;;;;;3.08;2.88;;;;;;;;;;5027710;28;20184;-74
2023/07/17 02:07:49;;;;;;;5.60;3.25;;;;;;;;;;5031862;28;20206;-74
2023/07/17 02:10:15;;;;;;;3.00;2.80;;;;;;;;;;5028181;28;20180;-74
2023/07/17 02:12:41;;;;;;;6.90;2.55;;;;;;;;;;5031416;28;20176;-73
2023/07/17 02:15:11;;;;;;;2.50;2.30;;;23.00;82.10;;;;;;5030338;28;20295;-72
2023/07/17 02:17:36;;;;;;;2.80;2.60;;;22.90;81.70;;;;;;5031697;28;20561;-74
2023/07/17 02:20:08;;;;;;;2.67;2.58;;;22.90;81.90;;;;;;5031487;28;20191;-72
2023/07/17 02:22:34;;;;;;;2.22;2.13;;;;;;;;;;5031679;28;20168;-73
2023/07/17 02:25:00;;;;;;;7.25;2.58;;;;;;;;;;5021825;28;20270;-74
2023/07/17 02:27:26;;;;;;;2.20;2.10;;;;;;;;;;5031888;28;20189;-73
2023/07/17 02:29:53;;;;;;;2.72;2.17;;;;;;;;;;5032572;28;20183;-73
2023/07/17 02:32:19;;;;;;;2.28;2.17;;;22.80;81.40;;;;;;5031532;28;20177;-72
2023/07/17 02:34:45;;;;;;;2.58;2.47;;;;;;;;;;5031522;28;20293;-72
2023/07/17 02:37:11;;;;;;;2.58;2.47;;;22.80;80.90;;;;;;5029975;28;20536;-72
2023/07/17 02:39:37;;;;;;;1.90;1.90;;;22.70;81.10;;;;;;5031424;28;20186;-73
2023/07/17 02:42:02;;;;;;;2.47;2.28;;;22.80;81.70;;;;;;5031214;28;20176;-73
2023/07/17 02:44:28;;;;;;;2.22;2.13;;;22.80;81.10;;;;;;5031307;28;20223;-73
2023/07/17 02:46:54;;;;;;;1.95;1.85;;;;;;;;;;5030924;28;20710;-73
2023/07/17 02:49:20;;;;;;;4.43;2.35;;;22.80;81.50;;;;;;5033393;28;20583;-73
2023/07/17 02:51:46;;;;;;;1.85;1.80;;;;;;;;;;5038285;28;20185;-73
2023/07/17 02:54:12;;;;;;;4.03;1.90;;;22.80;81.30;;;;;;5020628;28;20242;-73
2023/07/17 02:56:37;;;;;;;2.33;2.22;;;22.70;81.50;;;;;;5029906;28;20211;-73
2023/07/17 02:59:05;;;;;;;2.22;2.13;;;;;;;;;;5030961;28;20183;-73
2023/07/17 03:01:31;;;;;;;3.22;2.33;;;;;;;;;;5030741;28;20177;-73
2023/07/17 03:03:57;;;;;;;3.92;2.38;;;22.70;80.80;;;;;;5030819;28;20701;-73
2023/07/17 03:06:22;;;;;;;2.35;2.22;;;22.70;80.80;;;;;;5030490;28;20177;-73
2023/07/17 03:08:50;;;;;;;2.10;2.00;;;;;;;;;;5030808;28;20208;-73
2023/07/17 03:11:16;;;;;;;2.03;1.92;;;;;;;;;;5029470;28;20176;-73
2023/07/17 03:13:42;;;;;;;2.60;2.42;;;;;;;;;;5030546;28;20200;-73
2023/07/17 03:16:08;;;;;;;2.05;1.95;;;22.70;80.20;;;;;;5030560;28;20203;-73
2023/07/17 03:18:34;;;;;;;2.10;1.90;;;;;;;;;;5030482;28;20258;-73
2023/07/17 03:21:00;;;;;;;2.10;2.00;;;;;;;;;;5030599;28;20682;-73
2023/07/17 03:23:26;;;;;;;2.25;2.25;;;;;;;;;;5032832;28;20192;-73
2023/07/17 03:25:53;;;;;;;2.30;2.20;;;;;;;;;;5030575;28;20560;-73
2023/07/17 03:28:19;;;;;;;2.40;2.30;;;;;;;;;;5030469;28;20631;-73
2023/07/17 03:30:45;;;;;;;1.88;1.77;;;;;;;;;;5029038;28;20636;-73
2023/07/17 03:33:11;;;;;;;2.05;1.95;;;;;;;;;;5031410;28;20658;-72
2023/07/17 03:35:37;;;;;;;2.22;2.13;;;;;;;;;;5029982;28;20609;-73
2023/07/17 03:38:03;;;;;;;2.25;2.15;;;22.70;80.90;;;;;;5028964;28;20180;-73
2023/07/17 03:40:29;;;;;;;2.60;2.50;;;;;;;;;;5030295;28;20164;-73
2023/07/17 03:42:55;;;;;;;1.88;1.88;;;;;;;;;;5034288;28;20184;-73
2023/07/17 03:45:21;;;;;;;2.88;2.15;;;;;;;;;;5026822;28;20219;-73
2023/07/17 03:47:49;;;;;;;3.33;2.20;;;22.80;81.40;;;;;;5033159;28;20247;-73
2023/07/17 03:50:15;;;;;;;2.80;2.60;;;;;;;;;;5029830;28;20259;-74
2023/07/17 03:52:41;;;;;;;2.00;1.90;;;;;;;;;;5030053;28;20302;-73
2023/07/17 03:55:07;;;;;;;2.40;2.30;;;22.80;81.20;;;;;;5029907;28;20680;-73
2023/07/17 03:57:33;;;;;;;2.80;2.60;;;;;;;;;;5029935;28;20198;-73
2023/07/17 03:59:59;;;;;;;6.53;2.47;;;;;;;;;;5031076;28;20177;-73
2023/07/17 04:02:25;;;;;;;2.28;2.15;;;;;;;;;;5029241;28;20234;-73
2023/07/17 04:04:52;;;;;;;3.08;2.45;;;22.90;81.00;;;;;;5026177;28;20634;-73
2023/07/17 04:07:18;;;;;;;3.05;2.50;;;22.90;80.80;;;;;;5023658;28;20234;-73
2023/07/17 04:09:44;;;;;;;3.10;2.10;;;;;;;;;;5027150;28;20728;-72
2023/07/17 04:12:11;;;;;;;2.90;2.65;;;22.90;80.90;;;;;;5026470;28;20211;-73
2023/07/17 04:14:37;;;;;;;3.90;3.42;;;;;;;;;;5029656;28;20271;-73
2023/07/17 04:17:06;;;;;;;3.97;3.53;;;22.80;84.60;;;;;;5034867;28;20258;-73
2023/07/17 04:19:32;;;;;;;4.50;3.58;;;;;;;;;;5028625;28;20179;-73
2023/07/17 04:21:58;;;;;;;6.35;3.45;;;;;;;;;;5030566;28;20610;-74
2023/07/17 04:24:24;;;;;;;3.78;3.47;;;22.90;83.30;;;;;;5033728;28;20578;-73
2023/07/17 04:26:50;;;;;;;3.08;2.92;;;;;;;;;;5033759;28;20168;-73
2023/07/17 04:29:16;;;;;;;7.40;3.80;;;23.00;83.20;;;;;;5034542;28;20180;-73
2023/07/17 04:31:42;;;;;;;5.80;3.25;;;23.00;83.10;;;;;;5033886;28;20216;-73
2023/07/17 04:34:08;;;;;;;5.07;3.20;;;;;;;;;;5035274;28;20188;-73
2023/07/17 04:36:34;;;;;;;6.32;2.72;;;;;;;;;;5033826;28;20208;-73
2023/07/17 04:39:04;;;;;;;1.98;1.77;;;;;;;;;;5033629;28;20619;-73
2023/07/17 04:41:30;;;;;;;3.63;2.20;;;;;;;;;;5033951;28;20643;-73
2023/07/17 04:43:56;;;;;;;2.45;2.25;;;;;;;;;;5034729;28;20232;-74
2023/07/17 04:46:23;;;;;;;4.43;2.42;;;;;;;;;;5033298;28;20256;-74
2023/07/17 04:48:49;;;;;;;2.55;2.35;;;23.20;80.70;;;;;;5039810;28;20203;-74
2023/07/17 04:51:15;;;;;;;2.90;2.65;;;;;;;;;;5039824;28;20658;-74
2023/07/17 04:53:40;;;;;;;3.92;2.67;;;23.30;79.90;;;;;;5038055;28;20184;-74
2023/07/17 04:56:06;;;;;;;2.85;2.35;;;;;;;;;;5040914;28;20191;-73
2023/07/17 04:58:32;;;;;;;4.97;2.88;;;;;;;;;;5032696;28;20589;-73
2023/07/17 05:01:00;;;;;;;3.58;2.47;;;23.40;79.60;;;;;;5035339;28;20557;-72
2023/07/17 05:03:27;;;;;;;6.18;2.55;;;;;;;;;;5033005;28;20184;-72
2023/07/17 05:05:53;;;;;;;7.43;2.88;;;23.50;79.10;;;;;;5038252;28;20212;-73
2023/07/17 05:08:20;;;;;;;7.47;2.75;;;23.50;78.80;;;;;;5033034;28;20275;-73
2023/07/17 05:11:02;;;;;;;6.50;3.10;;;23.60;78.20;;;;;;5033997;28;20220;-74
2023/07/17 05:13:28;;;;;;;5.75;3.38;;;23.60;78.40;;;;;;5040060;28;20716;-73
2023/07/17 05:15:54;;;;;;;6.07;2.97;;;23.70;78.00;;;;;;5029620;28;20630;-74
2023/07/17 05:18:20;;;;;;;2.88;2.60;;;;;;;;;;5031609;28;20226;-76
2023/07/17 05:20:48;;;;;;;3.33;2.70;;;23.80;77.80;;;;;;5030754;28;20666;-76
2023/07/17 05:23:14;;;;;;;4.18;2.72;;;23.80;78.30;;;;;;5033620;28;20180;-75
2023/07/17 05:25:42;;;;;;;3.92;2.33;;;23.80;78.20;;;;;;5023793;28;20254;-74
2023/07/17 05:28:07;;;;;;;3.00;2.85;;;23.90;78.90;;;;;;5027484;28;20188;-74
2023/07/17 05:30:34;;;;;;;3.67;3.35;;;23.90;78.00;;;;;;5028963;28;20202;-75
2023/07/17 05:33:01;;;;;;;4.28;3.97;;;23.80;78.30;;;;;;5031213;28;20183;-75
2023/07/17 05:35:26;;;;;;;4.03;2.72;;;23.90;78.70;;;;;;5031260;28;20185;-75
2023/07/17 05:37:53;;;;;;;3.78;3.58;;;23.90;78.50;;;;;;5032127;28;20701;-74
2023/07/17 05:40:19;;;;;;;3.75;3.65;;;23.90;78.60;;;;;;5032010;28;20184;-74
2023/07/17 05:42:45;;;;;;;3.40;3.20;;;23.90;78.70;;;;;;5030637;28;20587;-75
2023/07/17 05:45:10;;;;;;;2.83;2.72;;;24.00;78.20;;;;;;5032270;28;20243;-76
2023/07/17 05:47:37;;;;;;;5.90;3.15;;;24.10;77.10;;;;;;5027782;28;20184;-75
2023/07/17 05:50:04;;;;;;;2.92;2.83;;;24.20;77.20;;;;;;5030808;28;20207;-75
2023/07/17 05:52:30;;;;;;;7.28;2.78;;;24.20;77.30;;;;;;5030722;28;20271;-75
2023/07/17 05:54:56;;;;;;;3.03;2.78;;;24.30;77.10;;;;;;5030727;28;20263;-75
2023/07/17 05:57:22;;;;;;;2.88;2.70;;;24.30;77.10;;;;;;5030153;28;20196;-74
2023/07/17 05:59:47;;;;;;;3.95;3.00;;;24.40;77.00;;;;;;5026340;28;20177;-75
2023/07/17 06:02:14;;;;;;;4.00;3.67;;;24.40;76.90;;;;;;5027539;28;20696;-73
2023/07/17 06:04:40;;;;;;;3.35;3.05;;;24.40;76.70;;;;;;5029452;28;20204;-73
2023/07/17 06:07:06;;;;;;;5.18;3.65;;;24.40;76.80;;;;;;5030939;28;20626;-74
2023/07/17 06:09:34;;;;;;;4.03;3.67;;;24.50;76.70;;;;;;5031551;28;20200;-74
2023/07/17 06:12:00;;;;;;;4.50;4.15;;;24.60;76.10;;;;;;5031672;28;20177;-73
2023/07/17 06:14:25;;;;;;;3.88;3.67;;;24.50;77.00;;;;;;5031643;28;20168;-73
2023/07/17 06:16:51;;;;;;;4.20;3.90;;;;;;;;;;5027587;28;20188;-74
2023/07/17 06:19:17;;;;;;;5.85;3.53;;;;;;;;;;5031326;28;20177;-74
2023/07/17 06:21:44;;;;;;;3.75;2.88;;;;;;;;;;5036115;28;20242;-74
2023/07/17 06:24:10;;;;;;;2.95;2.75;;;;;;;;;;5030671;28;20326;-74
2023/07/17 06:26:36;;;;;;;3.30;3.10;;;;;;;;;;5031555;28;20184;-73
2023/07/17 06:29:03;;;;;;;3.63;3.38;;;24.80;75.60;;;;;;5031368;28;20180;-73
2023/07/17 06:31:29;;;;;;;2.95;2.70;;;24.90;75.10;;;;;;5029430;28;20337;-73
2023/07/17 06:33:55;;;;;;;2.90;2.75;;;;;;;;;;5021543;28;20192;-73
2023/07/17 06:36:21;;;;;;;4.20;3.00;;;;;;;;;;5031292;28;20182;-74
2023/07/17 06:38:47;;;;;;;6.18;3.28;;;;;;;;;;5031132;28;20642;-74
2023/07/17 06:41:14;;;;;;;2.85;2.65;;;25.00;74.80;;;;;;5026744;28;20176;-73
2023/07/17 06:43:40;;;;;;;2.83;2.30;;;;;;;;;;5061623;28;20200;-74
2023/07/17 06:46:06;;;;;;;6.30;3.67;;;25.00;74.10;;;;;;5020565;28;20187;-73
2023/07/17 06:48:32;;;;;;;2.67;2.47;;;;;;;;;;5033907;28;20168;-74
2023/07/17 06:50:58;;;;;;;4.78;3.25;;;;;;;;;;5027119;28;20185;-74
2023/07/17 06:53:24;;;;;;;6.50;3.22;;;;;;;;;;5023336;28;20234;-73
2023/07/17 06:55:57;;;;;;;6.60;4.07;;;25.10;75.00;;;;;;5029593;28;20172;-74
2023/07/17 06:58:23;;;;;;;5.97;3.65;;;;;;;;;;5030536;28;20188;-73
2023/07/17 07:00:55;;;;;;;5.55;4.15;;;25.20;74.70;;;;;;5030751;28;20177;-73
2023/07/17 07:03:21;;;;;;;4.78;3.13;;;;;;;;;;5030737;28;20176;-74
2023/07/17 07:05:57;;;;;;;11.38;3.40;;;25.40;74.80;;;;;;5030320;28;20546;-73
2023/07/17 07:08:24;;;;;;;6.60;4.20;;;25.50;74.50;;;;;;5030508;28;20183;-75
2023/07/17 07:10:52;;;;;;;7.55;4.32;;;25.60;74.70;;;;;;5029760;28;20226;-73
2023/07/17 07:13:18;;;;;;;5.57;4.00;;;;;;;;;;5022306;28;20188;-73
2023/07/17 07:15:44;;;;;;;6.18;3.90;;;;;;;;;;5027710;28;20180;-73
2023/07/17 07:18:10;;;;;;;4.93;3.42;;;25.70;74.10;;;;;;5037050;28;20228;-73
2023/07/17 07:20:36;;;;;;;5.80;3.55;;;;;;;;;;5031500;28;20285;-73
2023/07/17 07:23:02;;;;;;;6.97;3.78;;;;;;;;;;5028876;28;20187;-73
2023/07/17 07:25:27;;;;;;;5.68;3.50;;;;;;;;;;5030034;28;20208;-73
2023/07/17 07:27:53;;;;;;;6.97;3.88;;;;;;;;;;5030193;28;20673;-74
2023/07/17 07:30:19;;;;;;;7.47;4.55;;;26.10;73.80;;;;;;5029571;28;20187;-74
2023/07/17 07:32:45;;;;;;;7.38;4.20;;;;;;;;;;5028159;28;20191;-73
2023/07/17 07:35:11;;;;;;;4.32;3.67;;;;;;;;;;5029944;28;20220;-74
2023/07/17 07:37:37;;;;;;;3.78;3.33;;;;;;;;;;5026067;28;20177;-74
2023/07/17 07:40:06;;;;;;;5.38;3.55;;;26.30;73.50;;;;;;5025940;28;20665;-74
2023/07/17 07:42:32;;;;;;;4.82;3.85;;;26.40;73.10;;;;;;5030045;28;20580;-74
2023/07/17 07:44:58;;;;;;;6.47;3.97;;;26.50;73.20;;;;;;5029710;28;20220;-73
2023/07/17 07:47:24;;;;;;;7.05;4.22;;;26.60;72.40;;;;;;5029774;28;20172;-73
2023/07/17 07:49:50;;;;;;;5.95;3.30;;;26.70;72.80;;;;;;5030052;28;20238;-73
2023/07/17 07:52:16;;;;;;;5.22;3.28;;;;;;;;;;5029874;28;20251;-73
2023/07/17 07:54:45;;;;;;;4.30;3.72;;;26.90;72.80;;;;;;5024595;28;20188;-73
2023/07/17 07:57:10;;;;;;;6.40;4.18;;;27.00;72.60;;;;;;5020222;28;20200;-73
2023/07/17 07:59:36;;;;;;;7.15;4.95;;;;;;;;;;5028275;28;20183;-73
2023/07/17 08:02:02;;;;;;;8.80;5.15;;;27.20;72.50;;;;;;5029712;28;20597;-73
2023/07/17 08:04:29;;;;;;;6.68;4.53;;;27.30;72.60;;;;;;5029062;28;20215;-73
2023/07/17 08:06:56;;;;;;;7.93;4.70;;;27.30;72.80;;;;;;5029693;28;20184;-73
2023/07/17 08:09:22;;;;;;;5.55;4.07;;;;;;;;;;5029109;28;20180;-73
2023/07/17 08:11:48;;;;;;;5.38;4.03;;;;;;;;;;5026680;28;20226;-71
2023/07/17 08:14:14;;;;;;;5.38;4.32;;;;;;;;;;5026825;28;20207;-73
2023/07/17 08:16:40;;;;;;;6.60;4.78;;;;;;;;;;5020486;28;20616;-73
2023/07/17 08:19:06;;;;;;;7.60;4.88;;;27.40;72.30;;;;;;5023850;28;20176;-74
2023/07/17 08:21:32;;;;;;;9.18;4.53;;;;;;;;;;5029302;28;20172;-73
2023/07/17 08:23:58;;;;;;;9.40;5.63;;;;;;;;;;5029000;28;20204;-73
2023/07/17 08:26:24;;;;;;;8.43;5.18;;;;;;;;;;5029774;28;20180;-74
2023/07/17 08:28:50;;;;;;;5.60;5.00;;;27.60;72.90;;;;;;5028850;28;20176;-73
2023/07/17 08:31:16;;;;;;;5.47;4.78;;;27.70;72.60;;;;;;5029118;28;20567;-74
2023/07/17 08:33:42;;;;;;;6.47;4.07;;;;;;;;;;5029503;28;20234;-74
2023/07/17 08:36:08;;;;;;;6.57;4.57;;;27.90;72.50;;;;;;5022864;28;20257;-74
2023/07/17 08:38:34;;;;;;;7.03;4.78;;;;;;;;;;5023752;28;20181;-74
2023/07/17 08:41:00;;;;;;;6.60;4.88;;;28.10;72.50;;;;;;5029379;28;20176;-74
2023/07/17 08:43:27;;;;;;;6.60;4.63;;;28.20;72.60;;;;;;5029154;28;20189;-74
2023/07/17 08:45:53;;;;;;;7.47;4.63;;;;;;;;;;5029499;28;20176;-74
2023/07/17 08:48:19;;;;;;;7.55;4.95;;;28.50;72.20;;;;;;5028917;28;20196;-73
2023/07/17 08:50:45;;;;;;;6.13;4.35;;;28.60;71.40;;;;;;5029516;28;20616;-73
2023/07/17 08:53:12;;;;;;;8.48;4.82;;;28.70;71.70;;;;;;5027808;28;20169;-74
2023/07/17 08:55:38;;;;;;;5.68;5.10;;;28.80;71.70;;;;;;5021263;28;20650;-74
2023/07/17 08:58:04;;;;;;;7.75;5.07;;;28.90;70.60;;;;;;5029079;28;20688;-73
2023/07/17 09:00:30;;;;;;;9.13;5.80;;;29.10;71.50;;;;;;5021836;28;20243;-73
2023/07/17 09:02:56;;;;;;;7.45;5.72;;;;;;;;;;5023110;28;20175;-73
2023/07/17 09:05:23;;;;;;;11.88;5.80;;;;;;;;;;5028588;28;20299;-73
2023/07/17 09:07:49;;;;;;;9.10;4.95;;;;;;;;;;5034305;28;20168;-73
2023/07/17 09:10:21;;;;;;;7.25;5.93;;;29.40;70.90;;;;;;5030528;28;20181;-73
2023/07/17 09:12:57;;;;;;;10.70;5.68;;;29.50;70.80;;;;;;5027270;28;20661;-73
2023/07/17 09:15:29;;;;;;;7.00;5.43;;;29.60;70.30;;;;;;5028354;28;20262;-73
2023/07/17 09:17:55;;;;;;;12.35;5.55;;;29.70;70.80;;;;;;5028926;28;20210;-73
2023/07/17 09:20:21;;;;;;;7.75;5.68;;;29.90;70.20;;;;;;5023114;28;20709;-74
2023/07/17 09:22:48;;;;;;;5.75;4.82;;;30.00;69.50;;;;;;5031359;28;20314;-74
2023/07/17 09:25:15;;;;;;;6.85;5.05;;;30.10;69.10;;;;;;5028251;28;20216;-74
2023/07/17 09:27:48;;;;;;;4.57;4.18;;;30.20;69.20;;;;;;5030330;28;20184;-74
2023/07/17 09:30:16;;;;;;;9.15;5.88;;;30.40;68.00;;;;;;5031024;28;20214;-73
2023/07/17 09:32:43;;;;;;;5.85;5.30;;;30.50;67.00;;;;;;5030903;28;20176;-74
2023/07/17 09:35:11;;;;;;;8.70;6.05;;;30.60;67.70;;;;;;5027408;28;20264;-74
2023/07/17 09:37:38;;;;;;;13.38;5.97;;;30.70;68.40;;;;;;5029229;28;20180;-74
2023/07/17 09:40:07;;;;;;;7.15;5.13;;;30.90;67.00;;;;;;5061364;28;20188;-74
2023/07/17 09:42:34;;;;;;;10.15;6.65;;;31.00;67.30;;;;;;5022200;28;20183;-73
2023/07/17 09:45:00;;;;;;;10.02;5.82;;;31.20;66.10;;;;;;5030009;28;20669;-74
2023/07/17 09:47:26;;;;;;;16.10;7.60;;;31.30;65.60;;;;;;5024119;28;20617;-74
2023/07/17 09:49:54;;;;;;;8.27;5.60;;;31.40;64.10;;;;;;5028157;28;20192;-74
2023/07/17 09:52:20;;;;;;;9.68;6.00;;;31.50;63.70;;;;;;5031286;28;20213;-73
2023/07/17 09:54:49;;;;;;;11.68;5.80;;;31.60;62.50;;;;;;5031045;28;20758;-74
2023/07/17 09:57:28;;;;;;;10.85;5.93;;;31.80;63.30;;;;;;5027042;28;20279;-74
2023/07/17 10:00:13;;;;;;;13.75;6.07;;;;;;;;;;5031501;28;20180;-74
2023/07/17 10:02:53;;;;;;;10.77;5.72;;;;;;;;;;5026494;28;20200;-73
2023/07/17 10:05:20;;;;;;;9.68;5.40;;;32.40;62.10;;;;;;5024000;28;20287;-73
2023/07/17 10:07:48;;;;;;;9.40;5.57;;;32.60;61.90;;;;;;5029369;28;20673;-73
2023/07/17 10:10:14;;;;;;;5.65;4.43;;;;;;;;;;5031051;28;20615;-74
2023/07/17 10:12:41;;;;;;;10.15;5.55;;;33.00;60.60;;;;;;5029009;28;20561;-74
2023/07/17 10:15:08;;;;;;;5.53;4.40;;;33.20;61.90;;;;;;5028523;28;20184;-73
2023/07/17 10:17:35;;;;;;;10.52;5.10;;;33.40;58.70;;;;;;5027236;28;20172;-74
2023/07/17 10:20:04;;;;;;;8.55;4.45;;;33.70;57.40;;;;;;5031258;28;20186;-75
2023/07/17 10:22:44;;;;;;;4.40;4.03;;;34.00;56.90;;;;;;5031482;28;20186;-74
2023/07/17 10:25:19;;;;;;;4.32;4.07;;;34.30;56.70;;;;;;5031039;28;20755;-74
2023/07/17 10:27:51;;;;;;;4.55;4.25;;;34.70;56.80;;;;;;5030440;28;20255;-74
2023/07/17 10:30:34;;;;;;;5.97;4.70;;;35.10;56.70;;;;;;5024321;28;20176;-73
2023/07/17 10:33:11;;;;;;;5.50;4.20;;;35.50;53.60;;;;;;5028054;28;20203;-73
2023/07/17 10:35:44;;;;;;;4.35;3.97;;;36.00;53.50;;;;;;5020487;28;20179;-73
2023/07/17 10:38:11;;;;;;;7.18;4.82;;;36.30;53.70;;;;;;5025755;28;20188;-73
2023/07/17 10:40:37;;;;;;;5.53;3.90;;;;;;;;;;5030967;28;20666;-73
2023/07/17 10:43:21;;;;;;;7.03;4.32;;;36.90;50.80;;;;;;5031188;28;20275;-73
2023/07/17 10:45:48;;;;;;;3.55;3.35;;;37.20;51.20;;;;;;5021517;28;20290;-73
2023/07/17 10:48:15;;;;;;;4.22;4.00;;;37.60;51.00;;;;;;5026067;28;20204;-73
2023/07/17 10:50:57;;;;;;;5.03;4.47;;;38.00;51.30;;;;;;5026926;28;20180;-73
2023/07/17 10:53:23;;;;;;;5.53;4.28;;;38.50;51.50;;;;;;5029494;28;20184;-73
2023/07/17 10:55:49;;;;;;;4.93;4.45;;;38.90;50.70;;;;;;5015097;28;20192;-73
2023/07/17 10:58:18;;;;;;;5.50;4.65;;;39.20;48.50;;;;;;5023208;28;20228;-74
2023/07/17 11:00:44;;;;;;;5.10;4.75;;;;;;;;;;5023543;28;20262;-73
2023/07/17 11:03:13;;;;;;;4.90;4.60;;;39.90;49.30;;;;;;5028559;28;20180;-73
2023/07/17 11:05:41;;;;;;;5.90;3.88;;;40.30;48.60;;;;;;5029307;28;20215;-73
2023/07/17 11:08:08;;;;;;;5.32;4.93;;;40.70;46.50;;;;;;5029531;28;20180;-73
2023/07/17 11:10:36;;;;;;;4.75;4.45;;;40.90;46.50;;;;;;5027920;28;20874;-73
2023/07/17 11:13:03;;;;;;;5.15;4.78;;;41.00;46.50;;;;;;5025700;28;20655;-74
2023/07/17 11:15:32;;;;;;;4.53;4.22;;;41.30;50.00;;;;;;5025368;28;20881;-74
2023/07/17 11:18:02;;;;;;;4.50;4.30;;;41.70;50.50;;;;;;5029891;28;20224;-72
2023/07/17 11:20:29;;;;;;;4.65;4.25;;;42.00;45.40;;;;;;5024640;28;20184;-72
2023/07/17 11:22:56;;;;;;;4.05;3.75;;;42.30;46.50;;;;;;5030054;28;20684;-72
2023/07/17 11:25:27;;;;;;;4.50;4.25;;;42.60;46.50;;;;;;5029622;28;20231;-72
2023/07/17 11:27:54;;;;;;;3.75;3.55;;;42.80;45.80;;;;;;5029494;28;20192;-73
2023/07/17 11:30:34;;;;;;;4.72;3.92;;;42.90;45.10;;;;;;5029442;28;20179;-72
2023/07/17 11:33:00;;;;;;;3.92;3.63;;;;;;;;;;5023789;28;20190;-72
2023/07/17 11:35:46;;;;;;;4.13;3.88;;;43.00;45.10;;;;;;5029626;28;20187;-74
2023/07/17 11:38:14;;;;;;;4.07;3.78;;;43.20;42.80;;;;;;5027193;28;20180;-73
2023/07/17 11:40:53;;;;;;;3.67;3.42;;;43.50;41.20;;;;;;5023667;28;20203;-73
2023/07/17 11:43:41;;;;;;;3.78;3.45;;;43.80;40.10;;;;;;5029395;28;20221;-73
2023/07/17 11:46:09;;;;;;;5.85;3.72;;;44.20;40.30;;;;;;5028801;28;20191;-73
2023/07/17 11:48:40;;;;;;;3.72;3.42;;;44.50;42.20;;;;;;5035326;28;20176;-73
2023/07/17 11:51:06;;;;;;;3.10;3.00;;;44.60;42.30;;;;;;5028771;28;20187;-74
2023/07/17 11:53:34;;;;;;;3.47;3.17;;;44.60;40.50;;;;;;5027135;28;20180;-73
2023/07/17 11:56:01;;;;;;;3.30;3.20;;;44.60;40.20;;;;;;5029423;28;20177;-74
2023/07/17 11:58:31;;;;;;;3.42;3.20;;;44.80;39.90;;;;;;5028877;28;20696;-73
2023/07/17 12:00:57;;;;;;;2.83;2.72;;;45.20;39.30;;;;;;5027988;28;20266;-73
2023/07/17 12:03:24;;;;;;;2.70;2.60;;;45.50;39.60;;;;;;5026701;28;20213;-74
2023/07/17 12:05:49;;;;;;;3.13;2.92;;;45.60;38.70;;;;;;5027642;28;20246;-74
2023/07/17 12:08:16;;;;;;;3.17;2.97;;;45.60;38.50;;;;;;5022476;28;20188;-74
2023/07/17 12:10:42;;;;;;;2.85;2.85;;;45.50;38.60;;;;;;5029484;28;20192;-74
2023/07/17 12:13:08;;;;;;;2.67;2.67;;;45.40;39.20;;;;;;5029189;28;20168;-73
2023/07/17 12:15:35;;;;;;;3.33;3.13;;;45.30;42.20;;;;;;5027261;28;20183;-74
2023/07/17 12:18:00;;;;;;;3.00;3.00;;;45.40;39.70;;;;;;5028652;28;20168;-74
2023/07/17 12:20:29;;;;;;;2.70;2.70;;;45.60;40.10;;;;;;5029182;28;20671;-73
2023/07/17 12:22:56;;;;;;;3.22;3.00;;;46.00;40.50;;;;;;5029081;28;20580;-74
2023/07/17 12:25:23;;;;;;;3.22;3.13;;;46.40;38.20;;;;;;5029601;28;20203;-74
2023/07/17 12:27:49;;;;;;;3.88;3.13;;;;;;;;;;5029954;28;20186;-73
2023/07/17 12:30:16;;;;;;;3.38;3.05;;;46.90;41.90;;;;;;5029099;28;20190;-73
2023/07/17 12:32:42;;;;;;;3.75;3.17;;;47.00;38.20;;;;;;5026897;28;20200;-74
2023/07/17 12:35:09;;;;;;;4.45;3.10;;;46.90;38.00;;;;;;5029110;28;20238;-74
2023/07/17 12:37:35;;;;;;;3.28;3.17;;;47.00;38.40;;;;;;5028519;28;20258;-74
2023/07/17 12:40:01;;;;;;;3.85;3.53;;;46.80;38.60;;;;;;5028946;28;20287;-74
2023/07/17 12:42:27;;;;;;;3.10;3.00;;;46.90;41.60;;;;;;5028719;28;20192;-74
2023/07/17 12:44:53;;;;;;;3.40;3.40;;;46.70;38.00;;;;;;5032980;28;20239;-74
2023/07/17 12:47:19;;;;;;;3.17;3.13;;;46.60;39.00;;;;;;5027827;28;20175;-74
2023/07/17 12:49:45;;;;;;;3.20;3.10;;;46.50;39.30;;;;;;5032979;28;20568;-74
2023/07/17 12:52:11;;;;;;;3.50;3.28;;;;;;;;;;5032168;28;20653;-74
2023/07/17 12:54:37;;;;;;;2.80;2.80;;;;;;;;;;5023746;28;20184;-74
2023/07/17 12:57:03;;;;;;;3.28;3.10;;;46.20;42.00;;;;;;5032062;28;20784;-72
2023/07/17 12:59:29;;;;;;;3.22;3.13;;;;;;;;;;5032636;28;20310;-72
2023/07/17 13:01:56;;;;;;;6.88;2.97;;;46.30;39.40;;;;;;5032137;28;20176;-72
2023/07/17 13:04:22;;;;;;;3.25;3.22;;;46.50;41.40;;;;;;5023063;28;20212;-72
2023/07/17 13:06:48;;;;;;;3.75;3.55;;;46.80;38.00;;;;;;5030813;28;20557;-72
2023/07/17 13:09:14;;;;;;;3.58;3.38;;;;;;;;;;5032279;28;20183;-72
2023/07/17 13:11:40;;;;;;;3.85;3.53;;;;;;;;;;5030006;28;20176;-72
2023/07/17 13:14:08;;;;;;;4.53;3.17;;;47.50;39.50;;;;;;5032417;28;20183;-72
2023/07/17 13:16:35;;;;;;;3.45;3.35;;;47.30;39.00;;;;;;5031913;28;20175;-72
2023/07/17 13:19:01;;;;;;;3.67;3.55;;;47.40;39.20;;;;;;5033547;28;20202;-72
2023/07/17 13:21:27;;;;;;;3.53;3.30;;;47.40;37.90;;;;;;5031806;28;20172;-73
2023/07/17 13:23:53;;;;;;;3.53;3.42;;;;;;;;;;5032456;28;20681;-73